createdAt,value
2019-05-19T00:00:59.807Z,100704.85
2019-05-19T00:03:29.613Z,100697.23
2019-05-19T00:05:59.432Z,100697.23
2019-05-19T00:08:29.655Z,100695.89
2019-05-19T00:10:59.616Z,100697.64
2019-05-19T00:13:29.469Z,100700.52
2019-05-19T00:15:59.454Z,100702.24
2019-05-19T00:18:29.294Z,100702.16
2019-05-19T00:20:58.842Z,100700.04
2019-05-19T00:23:28.396Z,100691.98
2019-05-19T00:25:58.021Z,100694.26
2019-05-19T00:28:27.713Z,100687.09
2019-05-19T00:30:57.297Z,100687.54
2019-05-19T00:33:27.188Z,100679.48
2019-05-19T00:35:56.735Z,100677.27
2019-05-19T00:38:26.316Z,100670.56
2019-05-19T00:40:55.949Z,100674.99
2019-05-19T00:43:25.517Z,100675.45
2019-05-19T00:45:55.129Z,100672.77
2019-05-19T00:48:24.715Z,100663.84
2019-05-19T00:50:54.436Z,100659.81
2019-05-19T00:53:23.990Z,100662.50
2019-05-19T00:55:53.537Z,100671.05
2019-05-19T00:58:23.119Z,100670.19
2019-05-19T01:00:52.722Z,100670.56
2019-05-19T01:03:22.825Z,100668.36
2019-05-19T01:05:52.388Z,100668.73
2019-05-19T01:08:21.931Z,100669.70
2019-05-19T01:10:51.867Z,100671.05
2019-05-19T01:13:21.433Z,100664.81
2019-05-19T01:15:51.007Z,100662.61
2019-05-19T01:18:20.549Z,100656.27
2019-05-19T01:20:50.183Z,100665.67
2019-05-19T01:23:20.079Z,100667.98
2019-05-19T01:25:49.785Z,100664.81
2019-05-19T01:28:19.391Z,100653.20
2019-05-19T01:30:49.267Z,100652.31
2019-05-19T01:33:18.886Z,100654.06
2019-05-19T01:35:48.446Z,100659.44
2019-05-19T01:38:18.375Z,100659.44
2019-05-19T01:40:47.988Z,100652.31
2019-05-19T01:43:17.557Z,100657.69
2019-05-19T01:45:47.113Z,100660.48
2019-05-19T01:48:16.836Z,100651.94
2019-05-19T01:50:46.731Z,100661.34
2019-05-19T01:53:16.345Z,100659.52
2019-05-19T01:55:46.527Z,100659.14
2019-05-19T01:58:16.123Z,100662.20
2019-05-19T02:00:45.834Z,100662.32
2019-05-19T02:03:15.771Z,100661.34
2019-05-19T02:05:46.083Z,100665.38
2019-05-19T02:08:16.414Z,100655.11
2019-05-19T02:10:45.990Z,100658.66
2019-05-19T02:13:15.532Z,100652.42
2019-05-19T02:15:45.101Z,100660.08
2019-05-19T02:18:14.884Z,100650.80
2019-05-19T02:20:44.777Z,100647.13
2019-05-19T02:23:14.761Z,100650.80
2019-05-19T02:25:44.316Z,100650.68
2019-05-19T02:28:13.896Z,100643.22
2019-05-19T02:30:43.430Z,100644.08
2019-05-19T02:33:13.010Z,100641.39
2019-05-19T02:35:42.626Z,100639.64
2019-05-19T02:38:12.191Z,100645.42
2019-05-19T02:40:41.826Z,100646.27
2019-05-19T02:43:11.405Z,100644.93
2019-05-19T02:45:41.081Z,100651.16
2019-05-19T02:48:11.014Z,100650.68
2019-05-19T02:50:51.693Z,100654.34
2019-05-19T02:53:12.113Z,100652.62
2019-05-19T02:55:41.848Z,100657.02
2019-05-19T02:58:11.934Z,100655.20
2019-05-19T03:00:42.695Z,100642.33
2019-05-19T03:03:12.270Z,100645.91
2019-05-19T03:05:41.836Z,100649.05
2019-05-19T03:08:12.438Z,100650.87
2019-05-19T03:10:42.341Z,100650.02
2019-05-19T03:13:11.961Z,100648.67
2019-05-19T03:15:41.841Z,100648.27
2019-05-19T03:18:11.445Z,100646.92
2019-05-19T03:20:40.985Z,100647.41
2019-05-19T03:23:10.618Z,100643.01
2019-05-19T03:25:43.874Z,100641.55
2019-05-19T03:28:11.416Z,100654.13
2019-05-19T03:31:03.143Z,100657.78
2019-05-19T03:33:33.861Z,100653.34
2019-05-19T03:36:03.437Z,100649.43
2019-05-19T03:38:33.343Z,100652.12
2019-05-19T03:41:02.882Z,100652.48
2019-05-19T03:43:51.160Z,100657.00
2019-05-19T03:46:20.707Z,100653.46
2019-05-19T03:48:50.328Z,100652.69
2019-05-19T03:51:30.836Z,100654.88
2019-05-19T03:53:51.122Z,100654.11
2019-05-19T03:56:21.252Z,100648.73
2019-05-19T03:58:50.814Z,100654.52
2019-05-19T04:01:20.386Z,100654.11
2019-05-19T04:03:50.080Z,100659.11
2019-05-19T04:06:19.636Z,100660.94
2019-05-19T04:08:49.201Z,100655.16
2019-05-19T04:11:19.117Z,100657.39
2019-05-19T04:13:48.687Z,100661.42
2019-05-19T04:16:36.203Z,100652.09
2019-05-19T04:19:05.764Z,100652.78
2019-05-19T04:21:48.029Z,100654.79
2019-05-19T04:24:06.623Z,100656.21
2019-05-19T04:26:36.275Z,100655.92
2019-05-19T04:29:05.846Z,100657.26
2019-05-19T04:31:35.417Z,100656.33
2019-05-19T04:34:05.058Z,100657.55
2019-05-19T04:36:34.609Z,100655.47
2019-05-19T04:39:06.099Z,100657.67
2019-05-19T04:41:39.856Z,100659.01
2019-05-19T04:44:07.297Z,100658.52
2019-05-19T04:46:37.182Z,100660.16
2019-05-19T04:49:06.803Z,100659.87
2019-05-19T04:51:36.402Z,100658.15
2019-05-19T04:54:06.004Z,100658.45
2019-05-19T04:56:35.586Z,100651.73
2019-05-19T04:59:05.177Z,100654.49
2019-05-19T05:01:34.728Z,100646.44
2019-05-19T05:04:04.614Z,100647.78
2019-05-19T05:06:34.525Z,100646.06
2019-05-19T05:09:05.582Z,100648.27
2019-05-19T05:11:35.126Z,100645.58
2019-05-19T05:14:04.717Z,100645.47
2019-05-19T05:16:34.631Z,100650.39
2019-05-19T05:19:04.527Z,100647.21
2019-05-19T05:21:34.067Z,100647.21
2019-05-19T05:24:03.662Z,100652.59
2019-05-19T05:26:33.232Z,100651.24
2019-05-19T05:29:02.801Z,100655.27
2019-05-19T05:31:32.355Z,100655.27
2019-05-19T05:34:01.909Z,100654.87
2019-05-19T05:36:31.515Z,100653.45
2019-05-19T05:39:01.094Z,100659.67
2019-05-19T05:41:31.237Z,100657.47
2019-05-19T05:44:00.804Z,100662.36
2019-05-19T05:46:30.438Z,100657.95
2019-05-19T05:48:59.990Z,100666.02
2019-05-19T05:51:29.531Z,100658.81
2019-05-19T05:53:59.088Z,100659.30
2019-05-19T05:56:28.695Z,100666.88
2019-05-19T05:58:58.673Z,100673.67
2019-05-19T06:01:28.284Z,100675.80
2019-05-19T06:03:57.827Z,100677.55
2019-05-19T06:06:27.573Z,100674.94
2019-05-19T06:08:57.167Z,100671.39
2019-05-19T06:11:26.732Z,100679.45
2019-05-19T06:13:56.303Z,100680.02
2019-05-19T06:16:25.838Z,100673.22
2019-05-19T06:18:56.864Z,100670.61
2019-05-19T06:21:26.533Z,100670.05
2019-05-19T06:23:56.079Z,100676.77
2019-05-19T06:26:25.697Z,100682.02
2019-05-19T06:28:55.229Z,100674.45
2019-05-19T06:31:24.792Z,100674.86
2019-05-19T06:33:54.501Z,100676.20
2019-05-19T06:36:23.988Z,100672.55
2019-05-19T06:38:53.761Z,100671.20
2019-05-19T06:41:23.255Z,100674.26
2019-05-19T06:43:53.497Z,100679.18
2019-05-19T06:46:23.076Z,100670.23
2019-05-19T06:48:52.621Z,100676.01
2019-05-19T06:51:22.159Z,100677.35
2019-05-19T06:53:52.285Z,100678.21
2019-05-19T06:56:21.847Z,100680.41
2019-05-19T06:58:51.460Z,100683.95
2019-05-19T07:01:21.009Z,100683.95
2019-05-19T07:03:50.567Z,100685.22
2019-05-19T07:06:20.413Z,100691.45
2019-05-19T07:08:50.029Z,100685.52
2019-05-19T07:11:19.638Z,100683.80
2019-05-19T07:13:49.173Z,100684.25
2019-05-19T07:16:18.789Z,100686.38
2019-05-19T07:18:48.331Z,100681.97
2019-05-19T07:21:17.955Z,100685.43
2019-05-19T07:23:47.540Z,100682.34
2019-05-19T07:26:17.166Z,100685.52
2019-05-19T07:28:46.842Z,100680.63
2019-05-19T07:31:16.422Z,100682.34
2019-05-19T07:33:45.975Z,100681.41
2019-05-19T07:36:15.815Z,100682.34
2019-05-19T07:38:45.393Z,100684.09
2019-05-19T07:41:15.235Z,100693.87
2019-05-19T07:43:46.425Z,100683.61
2019-05-19T07:46:16.320Z,100682.63
2019-05-19T07:48:45.977Z,100681.41
2019-05-19T07:51:15.542Z,100694.44
2019-05-19T07:53:45.094Z,100698.87
2019-05-19T07:56:14.680Z,100683.61
2019-05-19T07:58:45.079Z,100690.70
2019-05-19T08:01:14.651Z,100698.30
2019-05-19T08:03:44.212Z,100701.84
2019-05-19T08:06:14.030Z,100691.59
2019-05-19T08:08:43.623Z,100693.67
2019-05-19T08:11:13.566Z,100690.12
2019-05-19T08:13:43.173Z,100693.79
2019-05-19T08:16:13.177Z,100685.31
2019-05-19T08:18:42.750Z,100686.50
2019-05-19T08:21:12.458Z,100683.33
2019-05-19T08:23:42.010Z,100691.20
2019-05-19T08:26:11.622Z,100681.02
2019-05-19T08:28:41.188Z,100678.25
2019-05-19T08:31:10.765Z,100683.05
2019-05-19T08:33:40.384Z,100682.57
2019-05-19T08:36:09.955Z,100674.39
2019-05-19T08:38:39.539Z,100683.72
2019-05-19T08:41:09.106Z,100689.09
2019-05-19T08:43:38.663Z,100683.72
2019-05-19T08:46:08.246Z,100685.44
2019-05-19T08:48:37.898Z,100681.81
2019-05-19T08:51:07.512Z,100680.75
2019-05-19T08:53:37.127Z,100685.27
2019-05-19T08:56:06.687Z,100692.85
2019-05-19T08:58:36.266Z,100690.94
2019-05-19T09:01:05.934Z,100689.48
2019-05-19T09:03:35.506Z,100690.27
2019-05-19T09:06:05.147Z,100680.97
2019-05-19T09:08:35.767Z,100692.58
2019-05-19T09:11:05.358Z,100695.83
2019-05-19T09:13:34.886Z,100692.58
2019-05-19T09:16:04.559Z,100699.38
2019-05-19T09:18:34.129Z,100704.38
2019-05-19T09:21:03.693Z,100699.38
2019-05-19T09:23:33.354Z,100698.52
2019-05-19T09:26:03.190Z,100695.83
2019-05-19T09:28:32.798Z,100700.34
2019-05-19T09:31:02.467Z,100698.11
2019-05-19T09:33:32.002Z,100695.42
2019-05-19T09:36:01.643Z,100698.52
2019-05-19T09:38:31.339Z,100696.69
2019-05-19T09:41:01.227Z,100689.59
2019-05-19T09:43:30.900Z,100699.00
2019-05-19T09:46:00.473Z,100693.14
2019-05-19T09:48:30.040Z,100696.77
2019-05-19T09:50:59.634Z,100695.54
2019-05-19T09:53:29.234Z,100692.85
2019-05-19T09:55:58.845Z,100703.03
2019-05-19T09:58:28.452Z,100709.27
2019-05-19T10:00:58.078Z,100706.58
2019-05-19T10:03:27.671Z,100705.73
2019-05-19T10:05:57.580Z,100700.72
2019-05-19T10:08:32.113Z,100702.06
2019-05-19T10:11:53.915Z,100699.45
2019-05-19T10:14:23.562Z,100691.51
2019-05-19T10:16:53.539Z,100684.78
2019-05-19T10:19:23.435Z,100689.59
2019-05-19T10:21:53.037Z,100688.33
2019-05-19T10:24:23.088Z,100688.82
2019-05-19T10:26:52.665Z,100686.99
2019-05-19T10:29:22.690Z,100681.91
2019-05-19T10:31:54.368Z,100679.22
2019-05-19T10:34:23.502Z,100680.08
2019-05-19T10:36:53.508Z,100686.80
2019-05-19T10:39:23.072Z,100681.05
2019-05-19T10:41:52.650Z,100684.67
2019-05-19T10:44:22.244Z,100687.96
2019-05-19T10:46:51.823Z,100681.98
2019-05-19T10:49:21.439Z,100685.64
2019-05-19T10:51:51.027Z,100690.05
2019-05-19T10:54:20.634Z,100693.14
2019-05-19T10:56:50.639Z,100690.16
2019-05-19T10:59:20.417Z,100687.96
2019-05-19T11:01:50.110Z,100673.63
2019-05-19T11:04:20.096Z,100683.52
2019-05-19T11:06:49.791Z,100683.16
2019-05-19T11:09:19.295Z,100691.10
2019-05-19T11:11:48.880Z,100684.87
2019-05-19T11:14:18.461Z,100686.02
2019-05-19T11:16:48.846Z,100677.21
2019-05-19T11:19:18.501Z,100685.73
2019-05-19T11:21:48.002Z,100684.38
2019-05-19T11:24:17.594Z,100672.69
2019-05-19T11:26:47.530Z,100686.99
2019-05-19T11:29:17.819Z,100684.38
2019-05-19T11:31:47.534Z,100687.96
2019-05-19T11:34:17.190Z,100684.87
2019-05-19T11:36:46.753Z,100683.44
2019-05-19T11:39:16.353Z,100671.83
2019-05-19T11:42:03.690Z,100674.52
2019-05-19T11:44:33.829Z,100680.47
2019-05-19T11:47:03.392Z,100684.09
2019-05-19T11:49:32.993Z,100689.88
2019-05-19T11:52:02.637Z,100681.33
2019-05-19T11:54:32.229Z,100684.50
2019-05-19T11:57:02.160Z,100680.95
2019-05-19T11:59:32.122Z,100679.98
2019-05-19T12:02:01.791Z,100679.61
2019-05-19T12:04:31.667Z,100683.52
2019-05-19T12:07:02.016Z,100676.80
2019-05-19T12:09:31.610Z,100682.10
2019-05-19T12:12:01.228Z,100676.23
2019-05-19T12:14:31.137Z,100689.59
2019-05-19T12:17:00.878Z,100681.98
2019-05-19T12:19:30.532Z,100676.72
2019-05-19T12:22:00.137Z,100674.52
2019-05-19T12:24:29.801Z,100684.67
2019-05-19T12:26:59.403Z,100676.16
2019-05-19T12:29:29.355Z,100670.49
2019-05-19T12:31:58.927Z,100671.34
2019-05-19T12:34:28.548Z,100669.15
2019-05-19T12:36:58.128Z,100679.41
2019-05-19T12:39:27.829Z,100675.67
2019-05-19T12:41:57.630Z,100663.37
2019-05-19T12:44:27.293Z,100680.35
2019-05-19T12:46:56.867Z,100662.02
2019-05-19T12:49:26.448Z,100660.20
2019-05-19T12:51:56.002Z,100659.73
2019-05-19T12:54:25.698Z,100652.61
2019-05-19T12:56:55.387Z,100642.43
2019-05-19T12:59:24.988Z,100651.27
2019-05-19T13:01:54.576Z,100650.78
2019-05-19T13:04:24.450Z,100647.73
2019-05-19T13:06:54.071Z,100649.55
2019-05-19T13:09:25.525Z,100653.02
2019-05-19T13:11:55.103Z,100658.11
2019-05-19T13:14:24.857Z,100659.45
2019-05-19T13:16:54.617Z,100659.05
2019-05-19T13:19:24.299Z,100659.45
2019-05-19T13:21:54.018Z,100656.36
2019-05-19T13:24:23.670Z,100649.07
2019-05-19T13:26:56.525Z,100648.70
2019-05-19T13:29:24.901Z,100654.37
2019-05-19T13:31:54.511Z,100658.00
2019-05-19T13:34:24.105Z,100653.48
2019-05-19T13:36:53.697Z,100659.83
2019-05-19T13:39:23.260Z,100651.28
2019-05-19T13:41:53.187Z,100650.05
2019-05-19T13:44:22.787Z,100646.96
2019-05-19T13:46:52.673Z,100655.43
2019-05-19T13:49:22.293Z,100646.87
2019-05-19T13:51:51.851Z,100645.53
2019-05-19T13:54:21.431Z,100649.65
2019-05-19T13:56:50.986Z,100642.08
2019-05-19T13:59:20.539Z,100646.96
2019-05-19T14:01:50.125Z,100647.16
2019-05-19T14:04:19.705Z,100649.36
2019-05-19T14:06:49.278Z,100666.75
2019-05-19T14:09:21.471Z,100655.51
2019-05-19T14:11:51.432Z,100655.11
2019-05-19T14:14:21.014Z,100653.31
2019-05-19T14:16:50.642Z,100653.87
2019-05-19T14:19:20.187Z,100657.05
2019-05-19T14:21:49.832Z,100657.50
2019-05-19T14:24:19.924Z,100654.08
2019-05-19T14:26:49.782Z,100660.39
2019-05-19T14:29:19.345Z,100653.95
2019-05-19T14:31:48.899Z,100655.79
2019-05-19T14:34:18.746Z,100653.67
2019-05-19T14:36:48.254Z,100656.84
2019-05-19T14:39:17.837Z,100656.55
2019-05-19T14:41:51.795Z,100670.84
2019-05-19T14:44:21.361Z,100675.85
2019-05-19T14:46:50.929Z,100670.84
2019-05-19T14:49:20.508Z,100675.58
2019-05-19T14:51:50.075Z,100663.27
2019-05-19T14:54:19.662Z,100662.41
2019-05-19T14:56:49.344Z,100669.02
2019-05-19T14:59:19.447Z,100668.16
2019-05-19T15:01:49.119Z,100667.79
2019-05-19T15:04:18.691Z,100669.31
2019-05-19T15:06:48.264Z,100680.27
2019-05-19T15:09:17.858Z,100673.92
2019-05-19T15:11:47.403Z,100671.25
2019-05-19T15:14:17.422Z,100672.42
2019-05-19T15:16:47.048Z,100666.84
2019-05-19T15:19:34.669Z,100659.75
2019-05-19T15:22:22.751Z,100663.49
2019-05-19T15:24:52.340Z,100678.84
2019-05-19T15:27:21.910Z,100688.33
2019-05-19T15:29:51.471Z,100687.36
2019-05-19T15:32:21.033Z,100688.25
2019-05-19T15:34:50.587Z,100696.88
2019-05-19T15:37:20.189Z,100694.69
2019-05-19T15:39:49.753Z,100685.84
2019-05-19T15:42:19.321Z,100693.05
2019-05-19T15:44:48.894Z,100688.72
2019-05-19T15:47:18.812Z,100694.18
2019-05-19T15:49:48.443Z,100693.61
2019-05-19T15:52:18.018Z,100683.72
2019-05-19T15:54:47.637Z,100688.31
2019-05-19T15:57:17.223Z,100688.72
2019-05-19T15:59:46.775Z,100695.16
2019-05-19T16:02:16.345Z,100687.54
2019-05-19T16:04:45.887Z,100681.72
2019-05-19T16:07:15.571Z,100686.60
2019-05-19T16:09:45.160Z,100685.75
2019-05-19T16:12:14.824Z,100674.51
2019-05-19T16:14:44.372Z,100671.91
2019-05-19T16:17:14.040Z,100672.95
2019-05-19T16:19:43.590Z,100676.20
2019-05-19T16:22:13.130Z,100667.20
2019-05-19T16:24:42.746Z,100662.88
2019-05-19T16:27:12.929Z,100663.83
2019-05-19T16:29:42.810Z,100671.89
2019-05-19T16:32:12.363Z,100658.56
2019-05-19T16:34:41.998Z,100647.81
2019-05-19T16:37:11.562Z,100655.39
2019-05-19T16:39:41.137Z,100641.95
2019-05-19T16:42:10.701Z,100649.53
2019-05-19T16:44:40.293Z,100653.64
2019-05-19T16:47:09.938Z,100650.09
2019-05-19T16:49:39.522Z,100648.67
2019-05-19T16:52:09.684Z,100643.38
2019-05-19T16:54:42.820Z,100633.60
2019-05-19T16:57:12.509Z,100645.29
2019-05-19T16:59:42.276Z,100648.09
2019-05-19T17:02:11.826Z,100657.58
2019-05-19T17:04:41.385Z,100642.80
2019-05-19T17:07:10.971Z,100644.63
2019-05-19T17:09:40.869Z,100649.78
2019-05-19T17:12:10.965Z,100644.53
2019-05-19T17:14:40.527Z,100657.75
2019-05-19T17:17:10.095Z,100657.37
2019-05-19T17:19:39.815Z,100652.05
2019-05-19T17:22:09.763Z,100651.75
2019-05-19T17:24:39.450Z,100658.84
2019-05-19T17:27:09.193Z,100660.67
2019-05-19T17:29:38.775Z,100660.78
2019-05-19T17:32:08.423Z,100662.20
2019-05-19T17:34:38.202Z,100668.92
2019-05-19T17:37:25.589Z,100669.89
2019-05-19T17:39:55.187Z,100676.76
2019-05-19T17:42:24.780Z,100673.78
2019-05-19T17:44:54.335Z,100679.56
2019-05-19T17:47:23.921Z,100680.90
2019-05-19T17:49:53.487Z,100688.55
2019-05-19T17:52:23.058Z,100696.31
2019-05-19T17:54:52.736Z,100692.69
2019-05-19T17:57:22.297Z,100692.69
2019-05-19T17:59:51.903Z,100692.95
2019-05-19T18:02:21.484Z,100690.45
2019-05-19T18:04:51.057Z,100702.54
2019-05-19T18:07:20.929Z,100701.20
2019-05-19T18:09:50.593Z,100705.60
2019-05-19T18:12:20.160Z,100699.38
2019-05-19T18:14:50.678Z,100707.51
2019-05-19T18:17:20.229Z,100714.22
2019-05-19T18:19:49.824Z,100716.23
2019-05-19T18:22:19.398Z,100716.31
2019-05-19T18:24:49.224Z,100717.27
2019-05-19T18:27:18.789Z,100723.88
2019-05-19T18:29:48.483Z,100721.37
2019-05-19T18:32:18.235Z,100718.70
2019-05-19T18:34:47.792Z,100725.52
2019-05-19T18:37:17.466Z,100741.14
2019-05-19T18:39:47.552Z,100736.62
2019-05-19T18:42:17.169Z,100737.48
2019-05-19T18:44:46.806Z,100729.99
2019-05-19T18:47:16.402Z,100723.69
2019-05-19T18:49:46.003Z,100733.72
2019-05-19T18:52:15.755Z,100728.77
2019-05-19T18:54:45.442Z,100729.31
2019-05-19T18:57:15.091Z,100737.30
2019-05-19T18:59:47.289Z,100733.34
2019-05-19T19:02:33.757Z,100740.43
2019-05-19T19:05:03.412Z,100742.19
2019-05-19T19:07:53.970Z,100745.91
2019-05-19T19:10:23.739Z,100753.55
2019-05-19T19:12:53.393Z,100752.88
2019-05-19T19:15:23.548Z,100763.24
2019-05-19T19:17:53.267Z,100753.44
2019-05-19T19:20:23.060Z,100757.39
2019-05-19T19:22:52.873Z,100757.95
2019-05-19T19:25:22.549Z,100755.82
2019-05-19T19:27:52.138Z,100762.35
2019-05-19T19:30:21.732Z,100771.44
2019-05-19T19:32:51.934Z,100778.56
2019-05-19T19:35:21.507Z,100786.69
2019-05-19T19:37:51.170Z,100795.53
2019-05-19T19:40:28.990Z,100794.19
2019-05-19T19:43:16.923Z,100785.58
2019-05-19T19:45:46.470Z,100768.20
2019-05-19T19:48:16.390Z,100785.34
2019-05-19T19:50:46.087Z,100776.44
2019-05-19T19:53:15.688Z,100777.22
2019-05-19T19:55:45.368Z,100774.05
2019-05-19T19:58:14.964Z,100770.26
2019-05-19T20:00:45.123Z,100765.75
2019-05-19T20:03:14.810Z,100760.38
2019-05-19T20:05:44.387Z,100762.02
2019-05-19T20:08:13.980Z,100763.66
2019-05-19T20:10:43.556Z,100768.32
2019-05-19T20:13:13.212Z,100766.98
2019-05-19T20:15:42.769Z,100758.85
2019-05-19T20:18:12.904Z,100770.45
2019-05-19T20:20:42.478Z,100768.63
2019-05-19T20:23:12.051Z,100767.13
2019-05-19T20:25:41.663Z,100756.84
2019-05-19T20:28:11.288Z,100764.45
2019-05-19T20:30:41.260Z,100773.66
2019-05-19T20:33:10.925Z,100778.92
2019-05-19T20:35:40.491Z,100766.54
2019-05-19T20:38:10.099Z,100766.95
2019-05-19T20:40:39.723Z,100768.19
2019-05-19T20:43:09.335Z,100766.77
2019-05-19T20:45:38.892Z,100765.91
2019-05-19T20:48:08.729Z,100755.06
2019-05-19T20:50:38.542Z,100755.47
2019-05-19T20:53:08.108Z,100765.91
2019-05-19T20:55:37.675Z,100757.74
2019-05-19T20:58:07.413Z,100758.16
2019-05-19T21:00:49.406Z,100756.33
2019-05-19T21:03:08.334Z,100757.67
2019-05-19T21:05:38.407Z,100753.56
2019-05-19T21:08:08.101Z,100747.16
2019-05-19T21:10:37.707Z,100748.87
2019-05-19T21:13:07.261Z,100744.77
2019-05-19T21:15:36.809Z,100736.14
2019-05-19T21:18:06.456Z,100743.72
2019-05-19T21:20:36.009Z,100738.42
2019-05-19T21:23:05.600Z,100733.46
2019-05-19T21:25:35.640Z,100736.22
2019-05-19T21:28:05.303Z,100731.22
2019-05-19T21:30:34.862Z,100728.54
2019-05-19T21:33:05.492Z,100734.32
2019-05-19T21:35:35.121Z,100730.85
2019-05-19T21:38:04.710Z,100740.17
2019-05-19T21:40:34.314Z,100733.05
2019-05-19T21:43:04.219Z,100732.57
2019-05-19T21:45:33.761Z,100729.14
2019-05-19T21:48:03.359Z,100729.99
2019-05-19T21:50:33.318Z,100721.16
2019-05-19T21:53:05.999Z,100730.85
2019-05-19T21:55:34.250Z,100725.96
2019-05-19T21:58:03.816Z,100728.72
2019-05-19T22:00:33.758Z,100728.35
2019-05-19T22:03:04.376Z,100729.14
2019-05-19T22:05:33.936Z,100731.41
2019-05-19T22:08:06.954Z,100731.82
2019-05-19T22:10:36.514Z,100731.41
2019-05-19T22:13:06.063Z,100734.58
2019-05-19T22:15:35.698Z,100722.88
2019-05-19T22:18:05.396Z,100724.22
2019-05-19T22:20:35.084Z,100725.11
2019-05-19T22:23:04.998Z,100725.55
2019-05-19T22:25:34.591Z,100720.19
2019-05-19T22:28:04.525Z,100725.18
2019-05-19T22:30:34.090Z,100729.28
2019-05-19T22:33:03.628Z,100729.99
2019-05-19T22:35:33.166Z,100726.15
2019-05-19T22:38:02.761Z,100733.23
2019-05-19T22:40:32.352Z,100728.65
2019-05-19T22:43:01.972Z,100729.58
2019-05-19T22:45:31.549Z,100731.41
2019-05-19T22:48:01.097Z,100726.04
2019-05-19T22:50:30.695Z,100729.14
2019-05-19T22:53:00.252Z,100734.50
2019-05-19T22:55:29.820Z,100733.72
2019-05-19T22:57:59.514Z,100736.41
2019-05-19T23:00:29.960Z,100731.11
2019-05-19T23:02:59.498Z,100737.64
2019-05-19T23:05:29.649Z,100730.07
2019-05-19T23:07:59.204Z,100732.08
2019-05-19T23:10:28.760Z,100733.02
2019-05-19T23:12:58.317Z,100728.91
2019-05-19T23:15:27.872Z,100734.20
2019-05-19T23:17:58.039Z,100736.89
2019-05-19T23:20:27.590Z,100742.34
2019-05-19T23:22:57.129Z,100744.54
2019-05-19T23:25:26.675Z,100741.93
2019-05-19T23:27:56.221Z,100743.20
2019-05-19T23:30:25.811Z,100741.86
2019-05-19T23:32:55.344Z,100742.27
2019-05-19T23:35:25.159Z,100733.42
2019-05-19T23:37:54.788Z,100734.77
2019-05-19T23:40:24.388Z,100729.77
2019-05-19T23:42:54.312Z,100728.50
2019-05-19T23:45:23.851Z,100728.61
2019-05-19T23:47:53.402Z,100731.30
2019-05-19T23:50:22.950Z,100729.17
2019-05-19T23:52:52.529Z,100733.28
2019-05-19T23:55:22.446Z,100720.26
2019-05-19T23:57:51.990Z,100727.34
